Time;durP1;ratioP1;P1;durP2;ratioP2;P2;SDS_P1;SDS_P2;PMS_P1;PMS_P2;Temp;Humidity;BMP_temperature;BMP_pressure;BME280_temperature;BME280_humidity;BME280_pressure;Samples;Min_cycle;Max_cycle;Signal;HPM_P1;HPM_P2
2021/06/05 00:01:30;;;;;;;5.35;2.40;;;;;;;24.69;37.88;100904.06;5041395;28;20041;-65
2021/06/05 00:03:59;;;;;;;6.65;2.85;;;;;;;24.66;38.11;100907.06;5043625;28;20144;-65
2021/06/05 00:06:28;;;;;;;6.80;2.95;;;;;;;24.68;38.15;100905.06;5046199;28;20037;-65
2021/06/05 00:08:55;;;;;;;7.60;2.40;;;;;;;24.68;37.54;100913.06;5042849;28;20553;-65
2021/06/05 00:11:26;;;;;;;9.27;3.40;;;;;;;24.65;38.22;100912.53;5042142;28;20506;-65
2021/06/05 00:13:56;;;;;;;4.78;3.30;;;;;;;24.66;38.03;100908.88;5044610;28;20049;-65
2021/06/05 00:16:29;;;;;;;3.28;2.78;;;;;;;24.65;38.28;100900.03;5043203;28;20044;-65
2021/06/05 00:18:57;;;;;;;4.53;2.42;;;;;;;24.63;38.16;100906.53;5042413;28;20041;-64
2021/06/05 00:21:26;;;;;;;3.95;2.47;;;;;;;24.63;38.26;100904.69;5038708;28;20033;-65
2021/06/05 00:23:54;;;;;;;4.40;2.85;;;;;;;24.62;37.86;100900.34;5039451;28;20040;-65
2021/06/05 00:26:21;;;;;;;4.35;2.83;;;;;;;24.62;38.02;100900.34;5041259;28;20037;-65
2021/06/05 00:28:49;;;;;;;8.70;2.28;;;;;;;24.62;38.20;100894.19;5044254;28;20090;-65
2021/06/05 00:31:17;;;;;;;10.50;3.55;;;;;;;24.57;38.44;100891.97;5040287;28;20033;-65
2021/06/05 00:33:44;;;;;;;2.53;2.05;;;;;;;24.59;38.11;100889.16;5042615;28;20052;-64
2021/06/05 00:36:12;;;;;;;6.38;3.03;;;;;;;24.56;38.18;100880.47;5044282;28;20500;-65
2021/06/05 00:38:40;;;;;;;8.27;2.70;;;;;;;24.56;38.19;100879.63;5042048;28;20446;-65
2021/06/05 00:41:10;;;;;;;4.60;2.17;;;;;;;24.58;37.73;100877.66;5041960;28;20045;-65
2021/06/05 00:43:43;;;;;;;2.90;2.15;;;;;;;24.52;38.38;100876.44;5043681;28;20046;-65
2021/06/05 00:46:12;;;;;;;2.80;2.05;;;;;;;24.49;38.01;100874.06;5043647;28;20124;-65
2021/06/05 00:48:40;;;;;;;6.60;2.40;;;;;;;24.42;37.86;100873.00;5056767;28;20045;-65
2021/06/05 00:51:09;;;;;;;7.45;3.10;;;;;;;24.46;38.12;100877.03;5043828;28;20387;-64
2021/06/05 00:53:40;;;;;;;3.60;2.15;;;;;;;24.48;38.26;100877.72;5053715;28;20048;-65
2021/06/05 00:56:12;;;;;;;8.90;3.08;;;;;;;24.49;38.23;100887.38;5042612;28;20038;-65
2021/06/05 00:58:40;;;;;;;5.63;2.40;;;;;;;24.50;38.26;100885.56;5041811;28;20132;-65
2021/06/05 01:01:17;;;;;;;6.63;2.60;;;;;;;24.51;38.31;100880.09;5045177;28;20504;-65
2021/06/05 01:03:52;;;;;;;7.25;2.20;;;;;;;24.42;38.65;100881.00;5040991;28;20037;-65
2021/06/05 01:06:50;;;;;;;7.97;3.08;;;;;;;24.14;41.79;100888.16;5040639;28;20049;-65
2021/06/05 01:09:59;;;;;;;6.57;4.03;;;;;;;23.84;43.99;100905.25;5044265;28;20492;-65
2021/06/05 01:12:51;;;;;;;6.50;5.30;;;;;;;23.42;44.63;100918.09;5042172;28;20099;-65
2021/06/05 01:15:43;;;;;;;5.68;4.85;;;;;;;23.49;43.55;100922.72;5056432;28;20480;-64
2021/06/05 01:18:32;;;;;;;7.15;6.13;;;;;;;23.33;45.05;100922.47;5041272;28;20136;-65
2021/06/05 01:21:30;;;;;;;9.73;5.40;;;;;;;23.38;45.08;100933.50;5041473;28;20064;-63
2021/06/05 01:24:36;;;;;;;8.80;6.72;;;;;;;23.34;46.07;100924.16;5043828;28;21097;-65
2021/06/05 01:27:12;;;;;;;10.98;7.43;;;;;;;23.18;46.86;100915.91;5055522;28;20520;-64
2021/06/05 01:29:42;;;;;;;8.00;6.43;;;;;;;23.24;46.70;100918.84;5056409;28;20041;-64
2021/06/05 01:32:13;;;;;;;11.20;6.90;;;;;;;23.22;47.03;100930.56;5044419;28;20049;-63
2021/06/05 01:34:48;;;;;;;13.80;7.00;;;;;;;23.20;47.02;100933.38;5040376;28;20140;-64
2021/06/05 01:37:20;;;;;;;9.70;6.60;;;;;;;23.19;47.22;100937.03;5040277;28;20087;-65
2021/06/05 01:39:54;;;;;;;7.85;7.05;;;;;;;23.27;47.08;100934.50;5038735;28;20510;-63
2021/06/05 01:42:27;;;;;;;9.35;7.18;;;;;;;23.31;47.00;100929.75;5044213;28;20037;-64
2021/06/05 01:44:58;;;;;;;9.00;6.65;;;;;;;23.33;47.24;100922.47;5034569;28;20047;-64
2021/06/05 01:47:27;;;;;;;10.60;7.40;;;;;;;23.24;47.75;100933.97;5042440;28;20052;-63
2021/06/05 01:49:55;;;;;;;12.23;7.38;;;;;;;23.24;47.92;100918.00;5045296;28;20453;-62
2021/06/05 01:52:29;;;;;;;9.07;7.25;;;;;;;23.29;47.65;100913.09;5041866;28;20060;-63
2021/06/05 01:55:27;;;;;;;7.53;6.75;;;;;;;23.32;47.12;100906.63;5040040;28;20045;-63
2021/06/05 01:58:02;;;;;;;11.00;7.07;;;;;;;23.34;46.71;100918.00;5042247;28;20129;-64
2021/06/05 02:00:52;;;;;;;7.70;6.90;;;;;;;23.32;47.27;100915.44;5044373;28;20045;-65
2021/06/05 02:03:23;;;;;;;10.48;7.13;;;;;;;23.33;46.91;100909.16;5050898;28;20033;-64
2021/06/05 02:06:08;;;;;;;8.27;7.13;;;;;;;23.29;47.04;100906.94;5045489;28;20396;-64
2021/06/05 02:08:35;;;;;;;7.72;6.53;;;;;;;23.34;46.67;100918.81;5047249;28;20041;-65
2021/06/05 02:11:08;;;;;;;9.27;6.82;;;;;;;23.35;46.90;100915.19;5058048;28;20046;-65
2021/06/05 02:13:49;;;;;;;10.35;6.80;;;;;;;23.34;47.01;100910.84;5041342;28;20507;-65
2021/06/05 02:16:29;;;;;;;7.75;6.30;;;;;;;23.35;46.71;100907.19;5044872;28;20044;-65
2021/06/05 02:19:03;;;;;;;11.40;6.78;;;;;;;23.33;46.55;100913.63;5044553;28;20567;-64
2021/06/05 02:21:44;;;;;;;11.70;6.50;;;;;;;23.39;46.75;100910.41;5041088;28;20439;-65
2021/06/05 02:24:35;;;;;;;9.68;6.10;;;;;;;23.41;46.33;100911.09;5039579;28;20065;-64
2021/06/05 02:27:03;;;;;;;7.80;6.18;;;;;;;23.38;46.28;100906.06;5059422;28;20123;-64
2021/06/05 02:29:40;;;;;;;11.25;6.50;;;;;;;23.37;46.18;100897.25;5048930;28;20064;-65
2021/06/05 02:32:14;;;;;;;9.23;5.27;;;;;;;23.36;45.48;100895.56;5058632;28;20041;-65
2021/06/05 02:34:45;;;;;;;7.53;4.97;;;;;;;23.36;45.11;100894.72;5049385;28;20132;-65
2021/06/05 02:37:15;;;;;;;7.88;4.65;;;;;;;23.37;44.75;100891.91;5057506;28;20095;-65
2021/06/05 02:39:45;;;;;;;5.43;4.22;;;;;;;23.38;44.51;100893.59;5062544;28;20059;-65
2021/06/05 02:42:19;;;;;;;4.72;4.03;;;;;;;23.37;44.82;100893.75;5048289;28;20033;-65
2021/06/05 02:44:51;;;;;;;8.35;4.82;;;;;;;23.38;44.44;100898.91;5042391;28;20045;-64
2021/06/05 02:47:21;;;;;;;4.57;3.92;;;;;;;23.38;44.08;100892.75;5041878;28;21404;-65
2021/06/05 02:49:49;;;;;;;7.65;3.95;;;;;;;23.40;43.68;100890.81;5042779;28;20664;-64
2021/06/05 02:52:31;;;;;;;6.88;3.55;;;;;;;23.38;43.09;100888.28;5041801;28;20045;-64
2021/06/05 02:55:09;;;;;;;5.50;2.53;;;;;;;23.37;42.63;100889.25;5042629;28;20548;-65
2021/06/05 02:57:38;;;;;;;5.40;3.15;;;;;;;23.37;42.44;100891.09;5034811;28;20407;-65
2021/06/05 03:00:37;;;;;;;4.28;2.72;;;;;;;23.38;42.37;100882.13;5041960;28;20076;-64
2021/06/05 03:03:09;;;;;;;3.65;2.47;;;;;;;23.36;41.73;100879.59;5044768;28;20041;-65
2021/06/05 03:05:38;;;;;;;4.40;2.55;;;;;;;23.34;41.94;100878.09;5042478;28;20595;-65
2021/06/05 03:08:15;;;;;;;4.47;2.08;;;;;;;23.34;41.60;100878.91;5045222;28;20143;-65
2021/06/05 03:10:43;;;;;;;4.70;2.58;;;;;;;23.33;41.49;100885.22;5059065;28;20040;-65
2021/06/05 03:13:12;;;;;;;4.82;3.20;;;;;;;23.33;41.33;100879.91;5046231;28;20033;-65
2021/06/05 03:15:42;;;;;;;3.70;2.53;;;;;;;23.35;41.41;100882.41;5057185;28;20048;-64
2021/06/05 03:18:12;;;;;;;7.55;2.20;;;;;;;23.28;41.35;100882.16;5045779;28;20038;-64
2021/06/05 03:20:42;;;;;;;4.68;2.67;;;;;;;23.27;41.21;100878.63;5057714;28;20037;-64
2021/06/05 03:23:12;;;;;;;3.88;1.95;;;;;;;23.29;40.78;100875.00;5041736;28;20045;-65
2021/06/05 03:25:40;;;;;;;5.00;2.35;;;;;;;23.26;41.28;100879.63;5063265;28;20124;-64
2021/06/05 03:28:09;;;;;;;3.67;2.40;;;;;;;23.25;41.57;100882.44;5057051;28;20109;-65
2021/06/05 03:30:37;;;;;;;2.80;2.50;;;;;;;23.26;41.62;100878.78;5041170;28;20038;-64
2021/06/05 03:33:07;;;;;;;4.03;2.67;;;;;;;23.23;41.65;100879.09;5049848;28;20057;-64
2021/06/05 03:35:37;;;;;;;11.82;2.85;;;;;;;23.20;41.79;100874.03;5045425;28;20128;-65
2021/06/05 03:38:07;;;;;;;3.08;2.80;;;;;;;23.19;41.82;100880.34;5043428;28;20053;-65
2021/06/05 03:40:38;;;;;;;5.13;2.42;;;;;;;23.16;42.06;100878.78;5055921;28;20046;-64
2021/06/05 03:43:09;;;;;;;5.32;2.53;;;;;;;23.18;41.80;100876.00;5059494;28;20056;-65
2021/06/05 03:45:38;;;;;;;3.20;2.38;;;;;;;23.21;41.77;100878.38;5046276;28;20053;-64
2021/06/05 03:48:06;;;;;;;2.45;2.22;;;;;;;23.21;41.70;100871.22;5042909;28;20407;-64
2021/06/05 03:50:41;;;;;;;11.50;2.10;;;;;;;23.16;42.37;100880.63;5043042;28;20131;-65
2021/06/05 03:53:13;;;;;;;4.80;2.67;;;;;;;23.14;42.31;100877.28;5042078;28;20045;-65
2021/06/05 03:55:41;;;;;;;3.25;2.35;;;;;;;23.13;42.60;100868.47;5047255;28;20049;-64
2021/06/05 03:58:10;;;;;;;4.53;2.60;;;;;;;23.16;42.50;100857.53;5045349;28;20121;-65
2021/06/05 04:00:41;;;;;;;7.18;3.33;;;;;;;23.15;42.27;100849.69;5048884;28;20045;-65
2021/06/05 04:03:09;;;;;;;4.50;2.50;;;;;;;23.21;42.23;100857.09;5054599;28;20041;-65
2021/06/05 04:05:37;;;;;;;3.33;2.35;;;;;;;23.27;42.14;100867.16;5053803;28;20056;-65
2021/06/05 04:08:06;;;;;;;6.20;3.70;;;;;;;23.26;42.50;100858.34;5054485;28;20036;-65
2021/06/05 04:10:34;;;;;;;7.47;3.10;;;;;;;23.28;42.41;100855.56;5054100;28;20067;-64
2021/06/05 04:13:02;;;;;;;3.22;2.90;;;;;;;23.30;42.22;100850.94;5053897;28;20131;-65
2021/06/05 04:15:32;;;;;;;7.20;2.72;;;;;;;23.31;42.60;100847.28;5052464;28;20045;-65
2021/06/05 04:18:05;;;;;;;7.18;2.70;;;;;;;23.29;42.81;100843.09;5054575;28;20051;-65
2021/06/05 04:20:36;;;;;;;6.13;2.80;;;;;;;23.30;43.20;100840.28;5053687;28;20561;-64
2021/06/05 04:23:03;;;;;;;5.85;3.03;;;;;;;23.31;42.86;100841.13;5053954;28;20045;-65
2021/06/05 04:25:30;;;;;;;5.38;3.03;;;;;;;23.31;43.22;100841.94;5054080;28;20043;-65
2021/06/05 04:27:58;;;;;;;5.38;2.97;;;;;;;23.35;42.87;100843.34;5052742;28;20140;-65
2021/06/05 04:30:29;;;;;;;9.00;4.22;;;;;;;23.36;43.33;100839.69;5053911;28;20045;-65
2021/06/05 04:32:56;;;;;;;9.45;2.80;;;;;;;23.38;43.11;100832.41;5053623;28;20049;-65
2021/06/05 04:35:25;;;;;;;2.70;2.08;;;;;;;23.40;43.10;100833.13;5068846;28;20055;-65
2021/06/05 04:37:52;;;;;;;4.25;2.33;;;;;;;23.42;43.13;100835.63;5053454;28;20128;-65
2021/06/05 04:40:21;;;;;;;4.93;2.53;;;;;;;23.45;42.90;100827.34;5046994;28;20116;-65
2021/06/05 04:42:49;;;;;;;3.58;3.13;;;;;;;23.47;43.08;100828.03;5049497;28;20495;-65
2021/06/05 04:45:17;;;;;;;6.55;2.90;;;;;;;23.48;42.94;100824.38;5053440;28;20076;-64
2021/06/05 04:47:45;;;;;;;8.57;2.75;;;;;;;23.46;43.55;100805.91;5051643;28;20065;-65
2021/06/05 04:50:15;;;;;;;9.02;2.47;;;;;;;23.50;43.75;100807.31;5053747;28;20511;-65
2021/06/05 04:52:42;;;;;;;6.05;2.30;;;;;;;23.54;43.77;100810.50;5053377;28;20123;-64
2021/06/05 04:55:10;;;;;;;6.43;2.40;;;;;;;23.58;43.85;100808.38;5052886;28;20136;-65
2021/06/05 04:57:51;;;;;;;7.50;2.00;;;;;;;23.61;43.95;100803.63;5053404;28;20494;-65
2021/06/05 05:00:24;;;;;;;3.05;2.17;;;;;;;23.63;44.16;100816.81;5051946;28;20041;-65
2021/06/05 05:02:51;;;;;;;4.57;2.55;;;;;;;23.62;44.40;100817.75;5053145;28;20069;-64
2021/06/05 05:05:18;;;;;;;50.42;4.93;;;;;;;23.68;44.46;100814.53;5052782;28;20135;-65
2021/06/05 05:07:49;;;;;;;42.38;5.32;;;;;;;23.76;44.33;100812.81;5053153;28;20047;-65
2021/06/05 05:10:18;;;;;;;7.43;3.05;;;;;;;23.84;44.19;100819.22;5053002;28;20052;-69
2021/06/05 05:12:45;;;;;;;6.63;2.90;;;;;;;23.90;44.14;100821.28;5053593;28;20052;-71
2021/06/05 05:15:12;;;;;;;5.88;3.08;;;;;;;23.92;44.40;100817.50;5052565;28;20044;-64
2021/06/05 05:17:39;;;;;;;15.27;3.85;;;;;;;23.95;44.57;100817.19;5052617;28;20057;-63
2021/06/05 05:20:09;;;;;;;6.53;2.55;;;;;;;24.00;45.03;100814.91;5049437;28;20041;-64
2021/06/05 05:22:38;;;;;;;6.68;2.58;;;;;;;24.09;44.66;100818.50;5054587;28;20077;-64
2021/06/05 05:25:06;;;;;;;4.55;2.60;;;;;;;24.24;44.73;100818.84;5045190;28;20027;-64
2021/06/05 05:27:33;;;;;;;3.53;2.13;;;;;;;24.76;44.12;100827.81;5050867;28;20051;-65
2021/06/05 05:29:59;;;;;;;7.22;3.80;;;;;;;25.31;42.88;100824.06;5054119;28;20430;-64
2021/06/05 05:32:27;;;;;;;7.40;2.70;;;;;;;25.67;41.62;100823.91;5053115;28;20438;-64
2021/06/05 05:34:54;;;;;;;4.47;2.75;;;;;;;25.75;41.38;100815.97;5055687;28;20072;-65
2021/06/05 05:37:21;;;;;;;7.43;2.97;;;;;;;25.85;40.73;100816.66;5056166;28;20120;-65
2021/06/05 05:39:48;;;;;;;4.90;2.38;;;;;;;25.79;40.61;100818.16;5051576;28;20483;-64
2021/06/05 05:42:14;;;;;;;13.68;2.78;;;;;;;25.80;40.66;100816.31;5051312;28;20489;-66
2021/06/05 05:44:41;;;;;;;6.63;2.70;;;;;;;25.98;40.01;100833.06;5049466;28;20049;-66
2021/06/05 05:47:09;;;;;;;8.48;2.72;;;;;;;26.10;39.80;100828.25;5040790;28;20037;-66
2021/06/05 05:49:35;;;;;;;3.35;2.25;;;;;;;26.32;39.34;100834.81;5038261;28;20132;-66
2021/06/05 05:52:03;;;;;;;7.72;3.00;;;;;;;26.29;39.50;100833.28;5041827;28;20389;-66
2021/06/05 05:54:30;;;;;;;5.80;2.67;;;;;;;26.41;39.09;100841.00;5042271;28;20049;-66
2021/06/05 05:56:57;;;;;;;7.80;2.10;;;;;;;26.50;38.30;100853.41;5050606;28;20143;-66
2021/06/05 05:59:24;;;;;;;4.18;2.28;;;;;;;26.32;38.96;100856.19;5050530;28;20033;-66
2021/06/05 06:01:50;;;;;;;5.13;2.50;;;;;;;26.74;39.01;100855.25;5052005;28;20041;-66
2021/06/05 06:04:20;;;;;;;10.48;3.95;;;;;;;27.06;38.41;100857.94;5052082;28;20048;-66
2021/06/05 06:06:47;;;;;;;5.38;2.13;;;;;;;27.19;37.90;100856.59;5052242;28;20061;-67
2021/06/05 06:09:15;;;;;;;4.93;3.60;;;;;;;27.37;37.45;100859.91;5051435;28;20029;-64
2021/06/05 06:11:46;;;;;;;7.13;2.67;;;;;;;27.27;36.89;100867.28;5052339;28;20069;-67
2021/06/05 06:14:14;;;;;;;8.30;2.33;;;;;;;27.28;37.25;100860.94;5051819;28;20047;-67
2021/06/05 06:16:42;;;;;;;6.63;2.67;;;;;;;27.68;36.04;100863.47;5051838;28;20561;-67
2021/06/05 06:19:13;;;;;;;6.57;2.47;;;;;;;27.49;35.46;100857.72;5051820;28;20033;-67
2021/06/05 06:21:44;;;;;;;10.05;3.28;;;;;;;28.18;34.83;100853.41;5048934;28;20530;-67
2021/06/05 06:24:11;;;;;;;7.63;2.28;;;;;;;28.84;32.70;100859.16;5053154;28;20045;-68
2021/06/05 06:26:39;;;;;;;7.10;3.10;;;;;;;29.15;31.35;100849.19;5052177;28;20116;-68
2021/06/05 06:29:11;;;;;;;5.68;3.58;;;;;;;29.08;31.49;100858.97;5052595;28;20033;-66
2021/06/05 06:31:44;;;;;;;6.25;2.65;;;;;;;28.87;32.34;100856.09;5049017;28;20037;-67
2021/06/05 06:34:12;;;;;;;6.50;3.08;;;;;;;28.95;31.28;100848.03;5052528;28;20147;-67
2021/06/05 06:36:42;;;;;;;7.95;2.45;;;;;;;29.16;30.22;100856.22;5051822;28;20065;-68
2021/06/05 06:39:13;;;;;;;5.28;2.38;;;;;;;29.17;30.97;100855.19;5051631;28;20098;-67
2021/06/05 06:41:42;;;;;;;8.50;2.42;;;;;;;29.20;29.71;100852.16;5060061;28;20051;-66
2021/06/05 06:44:10;;;;;;;4.00;2.00;;;;;;;28.68;30.39;100855.59;5056005;28;20048;-66
2021/06/05 06:46:42;;;;;;;4.07;2.70;;;;;;;28.31;31.36;100859.03;5069225;28;20071;-66
2021/06/05 06:49:11;;;;;;;3.42;2.30;;;;;;;28.40;31.65;100852.63;5055610;28;20092;-67
2021/06/05 06:51:39;;;;;;;7.90;2.50;;;;;;;28.55;31.53;100855.38;5058517;28;20063;-68
2021/06/05 06:54:07;;;;;;;7.82;2.80;;;;;;;28.50;32.58;100856.91;5057466;28;20481;-67
2021/06/05 06:56:35;;;;;;;8.55;2.70;;;;;;;28.68;31.29;100862.81;5058292;28;20132;-67
2021/06/05 06:59:03;;;;;;;11.57;3.40;;;;;;;29.28;31.32;100866.50;5056089;28;20115;-68
2021/06/05 07:01:31;;;;;;;8.27;2.45;;;;;;;29.35;30.03;100862.03;5055685;28;20607;-67
2021/06/05 07:03:58;;;;;;;6.25;2.80;;;;;;;29.09;30.27;100857.13;5055330;28;20043;-67
2021/06/05 07:06:25;;;;;;;4.47;2.85;;;;;;;28.85;30.26;100863.50;5055912;28;20052;-68
2021/06/05 07:08:54;;;;;;;6.35;3.22;;;;;;;29.21;30.81;100877.13;5054780;28;20039;-68
2021/06/05 07:11:27;;;;;;;4.20;2.40;;;;;;;29.74;30.62;100872.56;5055475;28;20120;-67
2021/06/05 07:13:54;;;;;;;7.60;2.97;;;;;;;29.49;31.36;100869.28;5054638;28;20075;-67
2021/06/05 07:16:23;;;;;;;5.22;2.83;;;;;;;29.28;30.93;100869.19;5055082;28;20132;-64
2021/06/05 07:18:50;;;;;;;4.90;2.90;;;;;;;29.44;30.16;100861.78;5055438;28;20067;-67
2021/06/05 07:21:18;;;;;;;4.97;2.90;;;;;;;29.38;30.01;100869.75;5053446;28;20042;-67
2021/06/05 07:23:45;;;;;;;7.47;2.92;;;;;;;29.74;30.22;100869.88;5059236;28;20047;-66
2021/06/05 07:26:17;;;;;;;8.10;3.35;;;;;;;29.78;30.13;100868.47;5064915;28;20127;-66
2021/06/05 07:28:48;;;;;;;7.60;3.22;;;;;;;29.69;30.39;100865.06;5059801;28;20095;-64
2021/06/05 07:31:19;;;;;;;10.30;3.28;;;;;;;30.49;29.52;100868.69;5053014;28;20051;-66
2021/06/05 07:33:47;;;;;;;8.38;3.15;;;;;;;31.23;28.60;100873.69;5052854;28;20451;-67
2021/06/05 07:36:28;;;;;;;4.93;2.95;;;;;;;32.15;27.14;100878.78;5058356;28;20043;-67
2021/06/05 07:38:55;;;;;;;6.93;3.38;;;;;;;31.99;27.09;100871.03;5052251;28;20048;-67
2021/06/05 07:41:22;;;;;;;5.05;3.08;;;;;;;31.24;27.65;100862.72;5055368;28;20055;-66
2021/06/05 07:43:49;;;;;;;8.75;2.83;;;;;;;31.44;27.80;100865.56;5053643;28;20045;-68
2021/06/05 07:46:16;;;;;;;9.80;3.60;;;;;;;31.36;28.00;100862.19;5053305;28;20041;-68
2021/06/05 07:48:44;;;;;;;17.95;2.97;;;;;;;31.30;27.95;100858.44;5060528;28;20043;-68
2021/06/05 07:51:12;;;;;;;10.52;3.38;;;;;;;31.44;28.45;100864.75;5062435;28;20047;-74
2021/06/05 08:04:42;;;;;;;4.50;2.33;;;;;;;32.53;26.49;100851.28;5151405;27;20388;-73
2021/06/05 08:07:10;;;;;;;2.88;2.58;;;;;;;33.11;26.63;100856.91;5151361;27;20400;-73
2021/06/05 08:09:37;;;;;;;6.07;2.67;;;;;;;33.16;25.94;100853.59;5150695;27;20035;-73
2021/06/05 08:12:06;;;;;;;7.47;3.30;;;;;;;34.05;25.02;100852.94;5151174;27;20067;-73
2021/06/05 08:14:33;;;;;;;6.07;2.13;;;;;;;33.68;25.05;100852.66;5151159;27;20386;-74
2021/06/05 08:17:01;;;;;;;7.30;2.60;;;;;;;32.83;24.54;100851.72;5150706;27;20039;-73
2021/06/05 08:19:28;;;;;;;6.18;2.83;;;;;;;32.49;25.06;100845.47;5132770;27;20043;-65
2021/06/05 08:21:56;;;;;;;3.80;2.55;;;;;;;32.39;26.07;100846.94;5136758;27;21020;-72
2021/06/05 08:24:23;;;;;;;7.97;2.70;;;;;;;31.80;25.91;100849.22;5139975;27;20030;-70
2021/06/05 08:26:51;;;;;;;7.55;2.53;;;;;;;31.29;27.14;100851.38;5139829;27;20057;-72
2021/06/05 08:29:18;;;;;;;5.53;2.08;;;;;;;31.21;26.74;100849.63;5148420;27;20121;-76
2021/06/05 08:31:49;;;;;;;3.85;2.20;;;;;;;31.06;27.71;100857.00;5150091;27;20050;-72
2021/06/05 08:34:19;;;;;;;9.18;3.05;;;;;;;30.70;29.43;100854.44;5134950;27;20051;-67
2021/06/05 08:36:47;;;;;;;6.68;2.20;;;;;;;30.81;29.20;100853.91;5131911;27;20061;-76
2021/06/05 08:39:15;;;;;;;7.13;2.78;;;;;;;30.57;29.05;100841.66;5131009;27;20057;-76
2021/06/05 08:41:52;;;;;;;9.20;2.60;;;;;;;30.65;29.39;100848.78;5130616;27;20040;-74
2021/06/05 08:44:25;;;;;;;4.13;2.78;;;;;;;30.38;29.99;100853.06;5141513;27;20050;-73
2021/06/05 08:46:59;;;;;;;5.43;2.70;;;;;;;30.41;30.38;100852.66;5141895;27;20063;-67
2021/06/05 08:49:31;;;;;;;3.92;2.60;;;;;;;30.30;30.88;100851.31;5134871;27;20075;-73
2021/06/05 08:52:10;;;;;;;2.70;2.40;;;;;;;30.09;31.10;100854.78;5133569;27;20035;-73
2021/06/05 08:55:01;;;;;;;6.85;2.72;;;;;;;30.30;30.71;100850.47;5129961;27;20039;-73
2021/06/05 08:57:32;;;;;;;7.60;2.97;;;;;;;30.53;30.16;100851.16;5129765;27;20122;-73
2021/06/05 09:00:17;;;;;;;3.78;3.13;;;;;;;30.41;30.04;100858.03;5130009;27;20136;-73
2021/06/05 09:02:48;;;;;;;6.68;3.00;;;;;;;30.16;30.17;100844.97;5135248;27;20055;-73
2021/06/05 09:05:21;;;;;;;4.63;3.25;;;;;;;30.47;29.70;100857.31;5118737;27;20089;-73
2021/06/05 09:07:49;;;;;;;13.57;3.25;;;;;;;30.15;29.89;100846.00;5116367;27;20067;-73
2021/06/05 09:10:20;;;;;;;4.50;2.83;;;;;;;30.19;30.00;100847.28;5115493;27;20040;-73
2021/06/05 09:12:47;;;;;;;5.43;2.65;;;;;;;30.24;30.49;100844.00;5116010;28;20062;-73
2021/06/05 09:15:24;;;;;;;5.35;2.97;;;;;;;30.58;30.31;100837.94;5115464;27;20093;-73
2021/06/05 09:17:55;;;;;;;5.45;3.15;;;;;;;30.72;30.19;100844.31;5114394;27;20043;-71
2021/06/05 09:20:38;;;;;;;9.93;3.17;;;;;;;30.73;29.99;100840.56;5115839;27;20059;-73
2021/06/05 09:23:36;;;;;;;10.50;3.30;;;;;;;30.65;30.16;100846.91;5113851;27;20462;-72
2021/06/05 09:26:27;;;;;;;7.93;2.83;;;;;;;30.54;30.13;100842.06;5114339;27;20115;-72
2021/06/05 09:29:15;;;;;;;11.95;3.70;;;;;;;30.26;29.88;100839.28;5123709;27;20043;-73
2021/06/05 09:32:10;;;;;;;7.93;3.05;;;;;;;30.37;31.08;100840.66;5111495;27;20496;-72
2021/06/05 09:34:48;;;;;;;6.78;3.33;;;;;;;30.29;30.62;100843.44;5115762;27;20131;-73
2021/06/05 09:37:32;;;;;;;8.80;4.25;;;;;;;30.16;30.47;100836.91;5113208;27;20043;-73
2021/06/05 09:40:21;;;;;;;10.02;4.00;;;;;;;29.39;31.66;100847.22;5114099;27;20035;-72
2021/06/05 09:43:16;;;;;;;4.38;2.75;;;;;;;29.73;31.36;100834.09;5115049;27;20481;-72
2021/06/05 09:46:02;;;;;;;10.43;3.20;;;;;;;30.15;30.54;100835.25;5118478;27;20039;-69
2021/06/05 09:48:51;;;;;;;6.85;3.13;;;;;;;29.69;31.06;100829.28;5119042;27;20096;-72
2021/06/05 09:51:34;;;;;;;10.15;3.22;;;;;;;29.78;31.16;100835.41;5119002;27;20561;-71
2021/06/05 09:54:05;;;;;;;7.93;3.83;;;;;;;29.93;30.84;100834.31;5115883;27;20096;-72
2021/06/05 09:56:39;;;;;;;7.28;3.00;;;;;;;29.96;30.72;100819.69;5116899;27;20054;-72
2021/06/05 09:59:16;;;;;;;5.32;3.53;;;;;;;29.94;30.19;100817.19;5118793;27;20427;-74
2021/06/05 10:02:09;;;;;;;4.55;2.63;;;;;;;29.67;31.41;100818.75;5119300;27;20044;-72
2021/06/05 10:04:37;;;;;;;4.20;3.03;;;;;;;29.77;30.74;100817.59;5117374;27;20059;-74
2021/06/05 10:07:24;;;;;;;6.20;2.85;;;;;;;29.69;30.63;100811.31;5118582;27;20481;-73
2021/06/05 10:10:18;;;;;;;8.07;2.95;;;;;;;29.62;31.12;100813.09;5119071;27;20562;-75
2021/06/05 10:12:48;;;;;;;3.28;2.80;;;;;;;30.00;31.14;100807.56;5114794;27;20040;-72
2021/06/05 10:15:20;;;;;;;7.53;3.03;;;;;;;30.00;30.81;100807.56;5117571;27;20053;-74
2021/06/05 10:17:54;;;;;;;4.38;2.67;;;;;;;29.97;30.87;100807.91;5114852;27;20509;-70
2021/06/05 10:20:38;;;;;;;8.52;4.00;;;;;;;29.94;31.41;100803.78;5116428;27;20045;-71
2021/06/05 10:23:08;;;;;;;4.45;2.85;;;;;;;29.89;31.48;100799.97;5119145;27;20047;-72
2021/06/05 10:25:45;;;;;;;4.63;3.15;;;;;;;29.67;31.10;100794.56;5116049;27;20074;-73
2021/06/05 10:28:27;;;;;;;5.32;3.10;;;;;;;29.86;31.62;100789.59;5115776;27;20047;-73
2021/06/05 10:31:02;;;;;;;4.18;2.88;;;;;;;29.84;32.07;100787.09;5115877;27;20043;-72
2021/06/05 10:33:37;;;;;;;3.80;2.67;;;;;;;29.60;31.40;100796.31;5117552;27;20064;-73
2021/06/05 10:36:11;;;;;;;5.63;2.53;;;;;;;29.64;32.15;100789.56;5118566;27;20149;-72
2021/06/05 10:38:46;;;;;;;5.07;3.60;;;;;;;29.69;33.10;100789.81;5115426;27;20070;-71
2021/06/05 10:41:21;;;;;;;7.13;3.42;;;;;;;29.45;34.21;100782.88;5117201;27;20401;-72
2021/06/05 10:43:48;;;;;;;5.25;3.65;;;;;;;29.72;32.89;100778.72;5115857;27;20397;-69
2021/06/05 10:46:37;;;;;;;7.50;4.13;;;;;;;29.91;32.62;100779.13;5118116;27;20126;-68
2021/06/05 10:49:10;;;;;;;6.63;4.68;;;;;;;30.06;32.50;100763.78;5114707;27;20408;-73
2021/06/05 10:51:42;;;;;;;6.63;4.10;;;;;;;30.14;32.38;100760.97;5116468;27;20047;-70
2021/06/05 10:54:31;;;;;;;10.82;5.05;;;;;;;29.91;33.16;100765.69;5117221;27;20073;-70
2021/06/05 10:57:27;;;;;;;6.78;3.80;;;;;;;29.86;33.71;100762.72;5114907;27;20178;-72
2021/06/05 10:59:57;;;;;;;7.70;3.78;;;;;;;29.67;33.18;100759.63;5106538;27;20031;-71
2021/06/05 11:02:52;;;;;;;10.55;3.50;;;;;;;29.87;32.55;100753.63;5114294;27;20041;-72
2021/06/05 11:05:41;;;;;;;7.72;3.20;;;;;;;29.81;33.48;100754.41;5111803;27;20066;-69
2021/06/05 11:08:09;;;;;;;6.13;3.63;;;;;;;29.89;32.64;100756.97;5108338;27;20499;-71
2021/06/05 11:11:00;;;;;;;5.10;3.25;;;;;;;30.06;32.89;100755.72;5112053;27;20031;-71
2021/06/05 11:13:36;;;;;;;9.38;4.28;;;;;;;30.30;32.83;100759.88;5111213;27;20145;-71
2021/06/05 11:16:07;;;;;;;8.70;3.97;;;;;;;30.31;32.50;100760.72;5120498;27;20043;-71
2021/06/05 11:18:42;;;;;;;6.25;3.58;;;;;;;30.14;32.28;100755.59;5112297;27;20090;-71
2021/06/05 11:21:24;;;;;;;9.63;3.40;;;;;;;30.07;32.84;100754.69;5115647;27;20032;-68
2021/06/05 11:23:56;;;;;;;5.00;3.40;;;;;;;30.12;32.99;100746.91;5115470;27;20063;-70
2021/06/05 11:26:39;;;;;;;9.30;4.75;;;;;;;30.18;32.49;100748.81;5123170;27;20050;-70
2021/06/05 11:29:15;;;;;;;5.53;3.63;;;;;;;30.14;33.08;100744.84;5129184;27;20527;-71
2021/06/05 11:31:48;;;;;;;8.95;3.20;;;;;;;29.96;33.59;100752.50;5126881;27;20097;-68
2021/06/05 11:34:36;;;;;;;8.50;4.10;;;;;;;29.87;32.42;100740.19;5112517;27;20039;-70
2021/06/05 11:37:26;;;;;;;7.32;3.35;;;;;;;30.02;32.73;100739.13;5110957;27;20039;-67
2021/06/05 11:39:57;;;;;;;5.45;4.20;;;;;;;30.07;32.90;100730.47;5111243;27;20046;-70
2021/06/05 11:42:24;;;;;;;5.93;4.47;;;;;;;30.23;32.46;100730.25;5110095;27;20063;-71
2021/06/05 11:44:58;;;;;;;4.68;3.17;;;;;;;30.17;32.45;100728.34;5111628;28;20035;-70
2021/06/05 11:47:26;;;;;;;5.30;4.00;;;;;;;30.18;33.13;100732.69;5110258;27;20061;-69
2021/06/05 11:50:01;;;;;;;9.20;3.63;;;;;;;29.99;33.58;100733.31;5115181;28;20048;-69
2021/06/05 11:52:33;;;;;;;6.43;3.42;;;;;;;29.93;33.29;100731.38;5113489;28;20478;-69
2021/06/05 11:55:33;;;;;;;3.83;3.35;;;;;;;30.01;33.26;100720.50;5113010;28;20126;-68
2021/06/05 11:58:23;;;;;;;6.97;4.15;;;;;;;30.16;33.13;100725.84;5117007;28;20055;-67
2021/06/05 12:01:11;;;;;;;6.97;3.85;;;;;;;29.71;34.23;100712.53;5112906;28;20038;-66
2021/06/05 12:03:44;;;;;;;6.53;3.28;;;;;;;29.63;34.46;100715.34;5113950;28;20478;-67